createdAt,value
2018-04-26T00:00:27.902Z,82.72
2018-04-26T00:02:59.259Z,82.79
2018-04-26T00:05:29.865Z,83.23
2018-04-26T00:08:02.075Z,83.40
2018-04-26T00:10:32.373Z,84.19
2018-04-26T00:13:03.056Z,84.30
2018-04-26T00:15:36.715Z,84.49
2018-04-26T00:18:05.638Z,84.47
2018-04-26T00:20:37.114Z,83.83
2018-04-26T00:23:05.628Z,83.43
2018-04-26T00:25:34.112Z,83.28
2018-04-26T01:35:13.340Z,84.62
2018-04-26T01:40:46.386Z,84.46
2018-04-26T01:43:14.961Z,83.83
2018-04-26T01:45:43.694Z,84.47
2018-04-26T01:48:12.311Z,83.88
2018-04-26T01:50:41.062Z,84.37
2018-04-26T01:53:09.582Z,85.16
2018-04-26T01:55:38.328Z,85.24
2018-04-26T01:58:31.938Z,85.11
2018-04-26T02:01:01.478Z,85.31
2018-04-26T02:03:30.161Z,84.80
2018-04-26T02:05:58.841Z,84.97
2018-04-26T02:08:30.519Z,84.80
2018-04-26T02:10:59.252Z,84.67
2018-04-26T02:13:28.845Z,85.20
2018-04-26T02:15:57.434Z,84.95
2018-04-26T02:18:27.169Z,85.45
2018-04-26T02:20:56.545Z,85.65
2018-04-26T02:23:25.199Z,85.77
2018-04-26T02:25:53.529Z,86.36
2018-04-26T02:28:23.393Z,86.32
2018-04-26T02:30:51.005Z,85.61
2018-04-26T02:33:20.456Z,84.90
2018-04-26T02:35:50.089Z,84.68
2018-04-26T02:38:18.603Z,84.84
2018-04-26T02:40:47.210Z,85.63
2018-04-26T02:43:15.776Z,85.14
2018-04-26T02:45:44.534Z,85.06
2018-04-26T02:48:13.088Z,85.34
2018-04-26T02:50:42.450Z,85.73
2018-04-26T02:53:10.969Z,85.86
2018-04-26T02:55:40.556Z,86.27
2018-04-26T02:58:10.116Z,85.77
2018-04-26T03:00:39.705Z,85.40
2018-04-26T03:03:07.355Z,85.41
2018-04-26T03:05:38.672Z,85.30
2018-04-26T03:08:07.251Z,85.13
2018-04-26T03:10:35.828Z,84.61
2018-04-26T03:13:04.444Z,84.13
2018-04-26T03:15:33.039Z,84.54
2018-04-26T03:18:00.718Z,84.35
2018-04-26T03:20:30.607Z,84.46
2018-04-26T03:22:59.247Z,84.71
2018-04-26T03:25:27.754Z,84.02
2018-04-26T03:27:57.331Z,83.48
2018-04-26T03:30:27.561Z,83.93
2018-04-26T03:32:57.061Z,83.20
2018-04-26T03:35:26.485Z,83.37
2018-04-26T03:50:07.799Z,83.10
2018-04-26T03:52:36.290Z,84.03
2018-04-26T16:33:40.042Z,52.67
2018-04-26T16:36:18.117Z,54.69
2018-04-26T16:38:53.748Z,55.42
2018-04-26T16:41:21.162Z,57.23
2018-04-26T16:43:48.575Z,57.21
2018-04-26T16:46:16.004Z,57.57
2018-04-26T16:48:43.614Z,57.53
2018-04-26T16:51:11.027Z,58.12
2018-04-26T16:53:38.662Z,58.50
2018-04-26T16:56:06.066Z,58.09
2018-04-26T16:58:33.519Z,57.63
2018-04-26T17:01:04.547Z,57.60
2018-04-26T17:03:31.984Z,57.01
2018-04-26T17:05:59.402Z,57.36
2018-04-26T17:08:26.826Z,58.58
2018-04-26T17:10:54.304Z,57.17
2018-04-26T17:13:22.694Z,56.72
2018-04-26T17:15:50.190Z,58.20
2018-04-26T17:18:17.646Z,59.17
2018-04-26T17:20:45.094Z,58.94
2018-04-26T17:23:13.409Z,58.79
2018-04-26T17:25:40.829Z,58.64
2018-04-26T17:28:09.252Z,59.06
2018-04-26T17:30:36.613Z,58.81
2018-04-26T17:33:04.018Z,59.46
2018-04-26T17:35:31.475Z,59.65
2018-04-26T17:37:58.893Z,59.96
2018-04-26T17:40:26.330Z,60.86
2018-04-26T17:42:53.854Z,60.93
2018-04-26T17:45:21.307Z,60.79
2018-04-26T17:47:48.722Z,60.78
2018-04-26T17:50:16.143Z,60.21
2018-04-26T17:52:43.571Z,60.42
2018-04-26T17:55:11.031Z,60.43
2018-04-26T17:57:42.055Z,60.16
2018-04-26T18:00:09.493Z,60.42
2018-04-26T18:02:36.902Z,60.41
2018-04-26T18:05:04.326Z,60.24
2018-04-26T18:07:31.793Z,60.05
2018-04-26T18:09:59.215Z,60.86
2018-04-26T18:12:27.526Z,61.20
2018-04-26T18:14:54.953Z,60.48
2018-04-26T18:17:22.382Z,60.64
2018-04-26T18:20:01.041Z,61.65
2018-04-26T18:22:21.606Z,61.78
2018-04-26T18:24:49.038Z,62.69
2018-04-26T18:27:16.457Z,63.00
2018-04-26T18:29:45.851Z,63.24
2018-04-26T18:32:13.389Z,63.77
2018-04-26T18:34:40.710Z,64.61
2018-04-26T18:37:08.238Z,65.32
2018-04-26T18:39:35.670Z,65.92
2018-04-26T18:42:03.157Z,66.63
2018-04-26T18:44:30.565Z,67.05
2018-04-26T18:46:58.887Z,67.29
2018-04-26T18:49:26.310Z,68.12
2018-04-26T18:51:53.718Z,68.72
2018-04-26T18:54:21.143Z,68.99
2018-04-26T18:56:49.485Z,69.09
2018-04-26T18:59:16.911Z,69.94
2018-04-26T19:01:44.338Z,69.99
2018-04-26T19:04:11.754Z,70.34
2018-04-26T19:06:39.165Z,70.60
2018-04-26T19:09:06.610Z,71.14
2018-04-26T19:11:34.067Z,71.98
2018-04-26T19:14:01.487Z,72.44
2018-04-26T19:16:28.897Z,72.13
2018-04-26T19:18:56.321Z,71.71
2018-04-26T19:21:23.790Z,71.83
2018-04-26T19:23:51.242Z,71.92
2018-04-26T19:26:18.659Z,71.20
2018-04-26T19:28:46.082Z,71.92
2018-04-26T19:31:13.502Z,72.80
2018-04-26T19:33:41.890Z,73.08
2018-04-26T19:36:09.325Z,73.17
2018-04-26T19:38:36.790Z,73.67
2018-04-26T19:41:04.158Z,73.69
2018-04-26T19:43:31.613Z,73.52
2018-04-26T19:45:59.039Z,73.24
2018-04-26T19:48:26.527Z,73.13
2018-04-26T19:50:53.933Z,72.84
2018-04-26T19:53:21.438Z,72.06
2018-04-26T19:55:48.858Z,71.62
2018-04-26T19:58:17.474Z,71.59
2018-04-26T20:00:44.937Z,71.95
2018-04-26T20:03:12.351Z,72.21
2018-04-26T20:05:39.770Z,72.39
2018-04-26T20:08:07.184Z,71.67
2018-04-26T20:10:34.605Z,71.42
2018-04-26T20:13:02.013Z,71.66
2018-04-26T20:15:29.438Z,71.31
2018-04-26T20:17:56.930Z,71.41
2018-04-26T20:20:24.394Z,71.44
2018-04-26T20:22:51.805Z,72.23
2018-04-26T20:25:19.226Z,72.85
2018-04-26T20:27:46.642Z,73.42
2018-04-26T20:30:14.046Z,73.68
2018-04-26T20:32:41.465Z,73.45
2018-04-26T20:35:08.884Z,73.51
2018-04-26T20:37:36.302Z,73.32
2018-04-26T20:40:03.709Z,73.72
2018-04-26T20:42:32.104Z,74.29
2018-04-26T20:44:59.510Z,74.15
2018-04-26T20:47:26.931Z,74.11
2018-04-26T20:49:54.345Z,74.25
2018-04-26T20:52:22.744Z,74.24
2018-04-26T20:54:50.150Z,74.24
2018-04-26T20:57:17.582Z,74.94
2018-04-26T20:59:45.029Z,75.06
2018-04-26T21:02:13.381Z,75.19
2018-04-26T21:04:40.795Z,75.21
2018-04-26T21:07:09.218Z,75.37
2018-04-26T21:09:36.702Z,75.40
2018-04-26T21:12:04.136Z,75.21
2018-04-26T21:14:31.538Z,75.31
2018-04-26T21:16:59.066Z,74.61
2018-04-26T21:19:26.479Z,74.81
2018-04-26T21:21:53.965Z,74.32
2018-04-26T21:24:22.371Z,74.71
2018-04-26T21:26:49.786Z,74.91
2018-04-26T21:29:18.171Z,74.13
2018-04-26T21:31:45.581Z,73.36
2018-04-26T21:34:13.002Z,73.49
2018-04-26T21:36:41.386Z,73.67
2018-04-26T21:39:08.798Z,72.67
2018-04-26T21:41:36.218Z,73.23
2018-04-26T21:44:03.644Z,73.43
2018-04-26T21:46:31.059Z,73.33
2018-04-26T21:48:58.476Z,73.51
2018-04-26T21:51:31.624Z,73.17
2018-04-26T21:54:04.602Z,74.25
2018-04-26T21:56:37.586Z,74.27
2018-04-26T21:59:10.486Z,74.57
2018-04-26T22:01:43.614Z,75.05
2018-04-26T22:04:16.979Z,74.90
2018-04-26T22:06:44.454Z,74.80
2018-04-26T22:09:12.798Z,74.36
2018-04-26T22:11:40.289Z,74.54
2018-04-26T22:14:07.750Z,74.60
2018-04-26T22:16:35.173Z,73.95
2018-04-26T22:19:02.668Z,73.77
2018-04-26T22:21:30.124Z,73.12
2018-04-26T22:23:57.534Z,73.30
2018-04-26T22:26:24.961Z,72.86
2018-04-26T22:28:52.365Z,72.25
2018-04-26T22:31:19.790Z,72.75
2018-04-26T22:33:47.302Z,71.85
2018-04-26T22:36:14.758Z,71.78
2018-04-26T22:38:43.133Z,71.82
2018-04-26T22:41:10.545Z,71.28
2018-04-26T22:43:38.250Z,71.73
2018-04-26T22:46:05.657Z,71.11
2018-04-26T22:48:33.161Z,70.66
2018-04-26T22:51:00.678Z,71.39
2018-04-26T22:53:28.086Z,71.18
2018-04-26T22:55:55.538Z,71.45
2018-04-26T22:58:23.194Z,71.17
2018-04-26T23:00:50.659Z,70.58
2018-04-26T23:03:18.114Z,70.62
2018-04-26T23:05:45.660Z,70.90
2018-04-26T23:08:13.129Z,70.18
2018-04-26T23:10:40.581Z,70.17
2018-04-26T23:13:08.241Z,70.09
2018-04-26T23:15:35.665Z,70.41
2018-04-26T23:18:03.070Z,71.29
2018-04-26T23:20:31.535Z,71.72
2018-04-26T23:22:58.941Z,72.09
2018-04-26T23:25:26.424Z,72.24
2018-04-26T23:27:55.029Z,72.77
2018-04-26T23:30:23.377Z,72.58
2018-04-26T23:32:50.791Z,72.86
2018-04-26T23:35:18.220Z,73.41
2018-04-26T23:37:45.629Z,73.29
2018-04-26T23:40:13.134Z,73.52
2018-04-26T23:42:40.643Z,73.69
2018-04-26T23:45:08.050Z,73.56
2018-04-26T23:47:35.481Z,73.87
2018-04-26T23:50:03.849Z,74.23
2018-04-26T23:52:31.347Z,74.58
2018-04-26T23:54:58.793Z,74.06
2018-04-26T23:57:26.254Z,73.78
2018-04-26T23:59:54.597Z,73.31
